Time;durP1;ratioP1;P1;durP2;ratioP2;P2;SDS_P1;SDS_P2;PMS_P1;PMS_P2;Temp;Humidity;BMP_temperature;BMP_pressure;BME280_temperature;BME280_humidity;BME280_pressure;Samples;Min_cycle;Max_cycle;Signal;HPM_P1;HPM_P2
2022/09/28 00:00:17;;;;;;;21.13;10.77;;;;;;;;;;5040032;27;92256;-70
2022/09/28 00:02:49;;;;;;;18.87;11.13;;;;;;;;;;5040519;27;92196;-70
2022/09/28 00:05:25;;;;;;;19.80;8.83;;;;;;;;;;5023708;28;94208;-70
2022/09/28 00:07:58;;;;;;;19.23;10.00;;;;;;;;;;5035928;28;95994;-70
2022/09/28 00:10:26;;;;;;;19.33;10.50;;;;;;;;;;5037056;28;92084;-70
2022/09/28 00:12:56;;;;;;;22.03;10.50;;;;;;;;;;5039995;28;93157;-70
2022/09/28 00:15:26;;;;;;;21.23;11.03;;;;;;;;;;5037821;28;94924;-70
2022/09/28 00:17:54;;;;;;;13.90;8.73;;;;;;;;;;5036340;28;94323;-70
2022/09/28 00:20:23;;;;;;;12.17;8.27;;;;;;;;;;5037531;28;92099;-71
2022/09/28 00:22:52;;;;;;;15.00;9.37;;;;;;;;;;5041556;28;92143;-70
2022/09/28 00:25:20;;;;;;;17.87;8.73;;;;;;;;;;5039909;28;96040;-70
2022/09/28 00:27:51;;;;;;;16.60;8.97;;;;;;;;;;5042385;28;93146;-70
2022/09/28 00:30:21;;;;;;;15.33;8.13;;;;;;;;;;5043532;27;92117;-72
2022/09/28 00:32:51;;;;;;;13.87;7.93;;;;;;;;;;5044580;28;91316;-72
2022/09/28 00:35:20;;;;;;;16.90;7.83;;;;;;;;;;5044884;28;93902;-72
2022/09/28 00:37:49;;;;;;;12.67;7.63;;;;;;;;;;5043039;28;96546;-72
2022/09/28 00:40:21;;;;;;;17.43;7.60;;;;;;;;;;5042638;28;92931;-72
2022/09/28 00:42:50;;;;;;;14.10;7.03;;;;;;;;;;5044278;28;92095;-71
2022/09/28 00:45:19;;;;;;;11.13;6.70;;;;;;;;;;5043328;28;94001;-71
2022/09/28 00:47:48;;;;;;;14.87;7.07;;;;;;;;;;5043559;28;92669;-71
2022/09/28 00:50:37;;;;;;;12.10;6.90;;;;;;;;;;5040730;28;92241;-72
2022/09/28 00:53:12;;;;;;;10.40;6.23;;;;;;;;;;5040588;28;92434;-72
2022/09/28 00:55:44;;;;;;;10.63;6.23;;;;;;;;;;5042625;28;93018;-74
2022/09/28 00:58:16;;;;;;;9.60;6.40;;;;;;;;;;5043154;28;92437;-73
2022/09/28 01:00:46;;;;;;;10.10;6.93;;;;;;;;;;5042831;28;92114;-73
2022/09/28 01:03:19;;;;;;;9.90;6.03;;;;;;;;;;5042123;28;92037;-73
2022/09/28 01:05:48;;;;;;;13.60;6.50;;;;;;;;;;5044066;28;94022;-72
2022/09/28 01:08:19;;;;;;;14.53;6.47;;;;;;;;;;5044215;28;94914;-72
2022/09/28 01:10:50;;;;;;;10.80;6.10;;;;;;;;;;5043751;28;92060;-72
2022/09/28 01:13:18;;;;;;;12.03;6.40;;;;;;;;;;5042123;28;92097;-72
2022/09/28 01:15:49;;;;;;;9.33;6.50;;;;;;;;;;5041051;28;93001;-72
2022/09/28 01:18:19;;;;;;;14.57;6.77;;;;;;;;;;5042669;28;94230;-72
2022/09/28 01:20:52;;;;;;;12.87;6.03;;;;;;;;;;5041692;28;92095;-72
2022/09/28 01:23:41;;;;;;;11.87;6.47;;;;;;;;;;5040129;28;91307;-71
2022/09/28 01:26:32;;;;;;;9.00;5.40;;;;;;;;;;5031612;28;93147;-72
2022/09/28 01:29:03;;;;;;;10.60;4.90;;;;;;;;;;5040186;28;94235;-71
2022/09/28 01:31:35;;;;;;;8.67;5.13;;;;;;;;;;5038668;28;93392;-71
2022/09/28 01:34:11;;;;;;;6.93;4.57;;;;;;;;;;5038656;28;92005;-71
2022/09/28 01:36:44;;;;;;;7.63;4.90;;;;;;;;;;5040389;27;93992;-72
2022/09/28 01:39:13;;;;;;;9.73;4.77;;;;;;;;;;5033672;28;93830;-70
2022/09/28 01:41:44;;;;;;;9.23;4.20;;;;;;;;;;5040085;28;92440;-71
2022/09/28 01:44:13;;;;;;;7.73;4.50;;;;;;;;;;5034975;28;92227;-71
2022/09/28 01:46:43;;;;;;;9.70;4.87;;;;;;;;;;5038878;28;93504;-71
2022/09/28 01:49:13;;;;;;;6.40;4.00;;;;;;;;;;5039481;28;92365;-71
2022/09/28 01:51:42;;;;;;;7.57;4.23;;;;;;;;;;5038522;28;92213;-71
2022/09/28 01:54:11;;;;;;;9.67;5.43;;;;;;;;;;5042862;27;92297;-71
2022/09/28 01:56:41;;;;;;;7.50;3.83;;;;;;;;;;5022499;28;94351;-71
2022/09/28 01:59:12;;;;;;;6.83;4.50;;;;;;;;;;5045765;27;95230;-72
2022/09/28 02:01:41;;;;;;;5.57;3.67;;;;;;;;;;5038952;28;92034;-71
2022/09/28 02:04:12;;;;;;;7.17;3.60;;;;;;;;;;5037860;28;92147;-71
2022/09/28 02:06:41;;;;;;;8.67;3.87;;;;;;;;;;5037692;28;94348;-71
2022/09/28 02:09:19;;;;;;;6.23;3.40;;;;;;;;;;5037533;28;93910;-71
2022/09/28 02:11:49;;;;;;;5.37;3.73;;;;;;;;;;5036695;28;92044;-71
2022/09/28 02:14:19;;;;;;;9.43;4.30;;;;;;;;;;5039427;27;91320;-71
2022/09/28 02:16:54;;;;;;;7.83;3.87;;;;;;;;;;5036663;28;94226;-71
2022/09/28 02:19:25;;;;;;;6.07;3.63;;;;;;;;;;5038158;28;93829;-72
2022/09/28 02:21:56;;;;;;;5.50;3.60;;;;;;;;;;5037594;27;92994;-72
2022/09/28 02:24:25;;;;;;;6.07;3.83;;;;;;;;;;5037295;27;93876;-71
2022/09/28 02:26:57;;;;;;;5.33;3.00;;;;;;;;;;5039264;28;96455;-71
2022/09/28 02:29:27;;;;;;;5.63;3.00;;;;;;;;;;5039293;28;93814;-72
2022/09/28 02:31:55;;;;;;;4.80;2.63;;;;;;;;;;5040690;28;92948;-70
2022/09/28 02:34:25;;;;;;;4.20;2.70;;;;;;;;;;5037023;28;92211;-73
2022/09/28 02:36:56;;;;;;;4.53;3.20;;;;;;;;;;5038493;28;93473;-72
2022/09/28 02:39:36;;;;;;;4.80;3.23;;;;;;;;;;5037985;28;93940;-72
2022/09/28 02:42:07;;;;;;;4.60;3.47;;;;;;;;;;5029871;27;92117;-72
2022/09/28 02:44:41;;;;;;;7.10;3.30;;;;;;;;;;5016125;28;92064;-72
2022/09/28 02:47:11;;;;;;;6.17;3.87;;;;;;;;;;5015387;28;95176;-71
2022/09/28 02:49:41;;;;;;;6.87;3.57;;;;;;;;;;5018755;28;94837;-71
2022/09/28 02:52:13;;;;;;;7.27;4.93;;;;;;;;;;5015470;28;93346;-72
2022/09/28 02:54:49;;;;;;;7.77;3.90;;;;;;;;;;5016606;28;92087;-71
2022/09/28 02:57:20;;;;;;;7.33;4.20;;;;;;;;;;5014068;28;93662;-72
2022/09/28 02:59:50;;;;;;;5.90;3.83;;;;;;;;;;5017731;28;94070;-71
2022/09/28 03:02:21;;;;;;;6.00;4.00;;;;;;;;;;5018900;28;92111;-72
2022/09/28 03:04:50;;;;;;;8.87;4.73;;;;;;;;;;5018110;28;91300;-71
2022/09/28 03:07:21;;;;;;;8.67;5.67;;;;;;;;;;5020548;28;93727;-72
2022/09/28 03:09:50;;;;;;;7.03;4.73;;;;;;;;;;5015195;28;93568;-72
2022/09/28 03:12:19;;;;;;;8.37;5.37;;;;;;;;;;5016781;28;92974;-72
2022/09/28 03:14:47;;;;;;;7.37;4.60;;;;;;;;;;5016174;28;92237;-73
2022/09/28 03:17:17;;;;;;;8.43;5.63;;;;;;;;;;5015618;28;94454;-72
2022/09/28 03:19:45;;;;;;;7.80;5.07;;;;;;;;;;5016425;28;96609;-72
2022/09/28 03:22:17;;;;;;;8.50;5.50;;;;;;;;;;5018319;28;92382;-72
2022/09/28 03:24:45;;;;;;;11.50;5.77;;;;;;;;;;5016050;28;93476;-71
2022/09/28 03:27:14;;;;;;;12.60;6.23;;;;;;;;;;5019754;28;94542;-70
2022/09/28 03:29:42;;;;;;;11.20;6.10;;;;;;;;;;5020940;28;93925;-70
2022/09/28 03:32:11;;;;;;;12.00;6.53;;;;;;;;;;5022452;28;92268;-72
2022/09/28 03:34:41;;;;;;;10.63;6.53;;;;;;;;;;5020786;28;92097;-72
2022/09/28 03:37:09;;;;;;;10.93;6.57;;;;;;;;;;5017711;28;95470;-72
2022/09/28 03:39:40;;;;;;;9.77;6.10;;;;;;;;;;5020479;28;94049;-72
2022/09/28 03:42:09;;;;;;;13.37;7.40;;;;;;;;;;5019624;28;92046;-71
2022/09/28 03:44:37;;;;;;;10.23;7.03;;;;;;;;;;5025110;28;92152;-72
2022/09/28 03:47:07;;;;;;;7.93;5.50;;;;;;;;;;5024171;28;94172;-73
2022/09/28 03:49:36;;;;;;;11.60;7.23;;;;;;;;;;5026608;28;94147;-74
2022/09/28 03:52:05;;;;;;;12.77;6.53;;;;;;;;;;5020761;28;92451;-71
2022/09/28 03:54:34;;;;;;;12.20;7.03;;;;;;;;;;5027410;28;91530;-72
2022/09/28 03:57:02;;;;;;;11.10;7.33;;;;;;;;;;5021465;28;94364;-72
2022/09/28 03:59:31;;;;;;;9.40;6.30;;;;;;;;;;5020403;28;96162;-72
2022/09/28 04:01:59;;;;;;;9.77;6.53;;;;;;;;;;5027110;28;92864;-72
2022/09/28 04:04:28;;;;;;;10.77;6.93;;;;;;;;;;5017963;28;92541;-72
2022/09/28 04:06:56;;;;;;;11.63;7.10;;;;;;;;;;5018097;28;94443;-72
2022/09/28 04:09:26;;;;;;;11.47;6.10;;;;;;;;;;5018753;28;96871;-72
2022/09/28 04:11:54;;;;;;;12.97;7.00;;;;;;;;;;5021034;28;92163;-72
2022/09/28 04:14:31;;;;;;;13.17;6.43;;;;;;;;;;5024682;28;92441;-72
2022/09/28 04:17:00;;;;;;;10.37;6.97;;;;;;;;;;5029323;28;93706;-71
2022/09/28 04:19:29;;;;;;;15.03;6.53;;;;;;;;;;5023302;28;93895;-70
2022/09/28 04:22:00;;;;;;;9.03;5.57;;;;;;;;;;5023394;28;93795;-70
2022/09/28 04:24:30;;;;;;;7.63;5.43;;;;;;;;;;5015337;28;91928;-70
2022/09/28 04:29:42;;;;;;;9.27;5.80;;;;;;;;;;5024949;28;94943;-72
2022/09/28 04:32:11;;;;;;;9.67;5.63;;;;;;;;;;5019945;28;92346;-69
2022/09/28 04:34:40;;;;;;;12.17;5.67;;;;;;;;;;5021093;28;92171;-69
2022/09/28 04:37:11;;;;;;;9.30;5.77;;;;;;;;;;5020401;28;94943;-70
2022/09/28 04:39:41;;;;;;;9.87;5.40;;;;;;;;;;5021635;28;93960;-69
2022/09/28 04:42:15;;;;;;;8.03;4.10;;;;;;;;;;5032138;27;92154;-69
2022/09/28 04:44:46;;;;;;;8.10;4.60;;;;;;;;;;5019410;28;91492;-70
2022/09/28 04:47:15;;;;;;;10.17;4.93;;;;;;;;;;5019185;28;94210;-71
2022/09/28 04:49:43;;;;;;;7.50;4.53;;;;;;;;;;5019903;28;92429;-71
2022/09/28 04:52:12;;;;;;;9.67;4.53;;;;;;;;;;5023710;28;93088;-71
2022/09/28 04:54:47;;;;;;;7.63;5.37;;;;;;;;;;5021565;28;91866;-70
2022/09/28 04:57:15;;;;;;;9.00;5.97;;;;;;;;;;5020052;28;94229;-70
2022/09/28 04:59:44;;;;;;;7.50;4.87;;;;;;;;;;5020457;28;93782;-70
2022/09/28 05:02:13;;;;;;;7.67;4.73;;;;;;;;;;5021560;28;92042;-70
2022/09/28 05:04:42;;;;;;;10.53;5.27;;;;;;;;;;5020761;28;92881;-70
2022/09/28 05:07:11;;;;;;;9.67;4.57;;;;;;;;;;5019828;28;94030;-70
2022/09/28 05:09:40;;;;;;;6.97;4.30;;;;;;;;;;5016589;28;93917;-70
2022/09/28 05:12:10;;;;;;;9.50;4.37;;;;;;;;;;5017746;28;92284;-70
2022/09/28 05:14:38;;;;;;;6.57;4.07;;;;;;;;;;5020737;28;92190;-71
2022/09/28 05:17:07;;;;;;;7.23;4.30;;;;;;;;;;5016760;28;93797;-71
2022/09/28 05:19:36;;;;;;;4.80;4.00;;;;;;;;;;5018729;28;95155;-71
2022/09/28 05:22:06;;;;;;;6.57;4.23;;;;;;;;;;5016565;28;92127;-71
2022/09/28 05:24:34;;;;;;;8.33;4.27;;;;;;;;;;5020169;28;92124;-71
2022/09/28 05:27:02;;;;;;;4.03;3.17;;;;;;;;;;5019447;28;93989;-71
2022/09/28 05:29:32;;;;;;;5.93;4.70;;;;;;;;;;5019881;28;94735;-71
2022/09/28 05:32:03;;;;;;;12.20;5.07;;;;;;;;;;5019639;28;92745;-71
2022/09/28 05:34:31;;;;;;;7.17;3.97;;;;;;;;;;5020929;28;91402;-71
2022/09/28 05:36:59;;;;;;;6.30;3.47;;;;;;;;;;5018886;28;94407;-72
2022/09/28 05:39:28;;;;;;;6.70;4.10;;;;;;;;;;5019440;28;94020;-71
2022/09/28 05:41:57;;;;;;;6.13;3.70;;;;;;;;;;5012652;28;92987;-72
2022/09/28 05:44:26;;;;;;;7.77;3.60;;;;;;;;;;5026059;28;92058;-72
2022/09/28 05:46:55;;;;;;;5.87;3.87;;;;;;;;;;5034677;28;93911;-71
2022/09/28 05:49:24;;;;;;;5.10;3.60;;;;;;;;;;5025695;28;93983;-71
2022/09/28 05:51:59;;;;;;;4.07;3.20;;;;;;;;;;5030724;28;92220;-71
2022/09/28 05:54:29;;;;;;;4.90;3.97;;;;;;;;;;5023659;28;92200;-71
2022/09/28 05:56:58;;;;;;;4.70;3.70;;;;;;;;;;5020448;28;94295;-70
2022/09/28 05:59:26;;;;;;;2.73;2.17;;;;;;;;;;5031195;28;93805;-77
2022/09/28 06:01:57;;;;;;;4.87;2.53;;;;;;;;;;4665600;22;92581;-53
2022/09/28 06:04:25;;;;;;;2.87;2.30;;;;;;;;;;5058649;27;93261;-53
2022/09/28 06:06:53;;;;;;;2.77;1.50;;;;;;;;;;5056514;27;95225;-53
2022/09/28 06:09:22;;;;;;;2.20;1.47;;;;;;;;;;5057832;27;93799;-52
2022/09/28 06:11:53;;;;;;;2.57;1.10;;;;;;;;;;5059082;27;91937;-52
2022/09/28 06:14:21;;;;;;;2.10;1.27;;;;;;;;;;5058241;27;92109;-53
2022/09/28 06:16:49;;;;;;;2.07;0.90;;;;;;;;;;5059178;27;93017;-53
2022/09/28 06:19:19;;;;;;;1.77;0.90;;;;;;;;;;5059343;27;93661;-54
2022/09/28 06:21:47;;;;;;;1.40;1.17;;;;;;;;;;5058124;27;93297;-53
2022/09/28 06:24:16;;;;;;;1.27;1.03;;;;;;;;;;5049058;27;91425;-56
2022/09/28 06:26:45;;;;;;;1.40;0.93;;;;;;;;;;5052417;27;94162;-57
2022/09/28 06:29:18;;;;;;;1.03;0.93;;;;;;;;;;5058316;27;92605;-57
2022/09/28 06:31:47;;;;;;;1.47;1.13;;;;;;;;;;5057051;27;93070;-56
2022/09/28 06:34:16;;;;;;;1.77;1.13;;;;;;;;;;5059673;27;92081;-56
2022/09/28 06:36:46;;;;;;;2.33;1.23;;;;;;;;;;5058568;27;95999;-57
2022/09/28 06:39:15;;;;;;;1.03;0.90;;;;;;;;;;5053704;27;93819;-56
2022/09/28 06:41:43;;;;;;;1.43;1.00;;;;;;;;;;5059555;27;92103;-56
2022/09/28 06:44:12;;;;;;;1.53;1.40;;;;;;;;;;5059783;27;92022;-55
2022/09/28 06:46:40;;;;;;;3.87;1.80;;;;;;;;;;5057444;27;94124;-56
2022/09/28 06:49:08;;;;;;;2.80;1.90;;;;;;;;;;5057471;27;93567;-56
2022/09/28 06:51:37;;;;;;;3.43;1.50;;;;;;;;;;5058507;27;92142;-55
2022/09/28 06:54:07;;;;;;;3.50;2.17;;;;;;;;;;5057107;27;92146;-56
2022/09/28 06:56:35;;;;;;;2.83;1.93;;;;;;;;;;5051917;27;95070;-55
2022/09/28 06:59:04;;;;;;;4.77;1.60;;;;;;;;;;5050067;27;93676;-56
2022/09/28 07:01:32;;;;;;;3.67;1.93;;;;;;;;;;5057241;27;94065;-56
2022/09/28 07:04:01;;;;;;;3.57;2.60;;;;;;;;;;5058044;27;92208;-56
2022/09/28 07:06:30;;;;;;;4.97;2.57;;;;;;;;;;5057175;27;94116;-55
2022/09/28 07:09:01;;;;;;;5.40;2.60;;;;;;;;;;5056636;27;93079;-56
2022/09/28 07:11:51;;;;;;;6.30;2.13;;;;;;;;;;5058652;27;91979;-56
2022/09/28 07:14:22;;;;;;;3.37;2.63;;;;;;;;;;5058648;27;91429;-56
2022/09/28 07:17:10;;;;;;;4.57;2.77;;;;;;;;;;5058046;27;95761;-56
2022/09/28 07:19:41;;;;;;;3.00;1.80;;;;;;;;;;5058713;27;92603;-56
2022/09/28 07:22:13;;;;;;;5.53;2.70;;;;;;;;;;5055688;27;93149;-56
2022/09/28 07:24:46;;;;;;;3.53;2.20;;;;;;;;;;5048931;27;92121;-56
2022/09/28 07:27:16;;;;;;;4.27;3.00;;;;;;;;;;5042138;27;92988;-54
2022/09/28 07:29:44;;;;;;;5.07;2.53;;;;;;;;;;5059197;27;93831;-57
2022/09/28 07:32:13;;;;;;;6.47;4.00;;;;;;;;;;5056806;27;92170;-56
2022/09/28 07:34:43;;;;;;;3.30;2.80;;;;;;;;;;5048171;27;92243;-56
2022/09/28 07:37:12;;;;;;;6.83;3.37;;;;;;;;;;5059268;27;94328;-56
2022/09/28 07:42:29;;;;;;;6.93;3.93;;;;;;;;;;5058787;27;92176;-56
2022/09/28 07:44:57;;;;;;;4.57;3.73;;;;;;;;;;5058267;27;92048;-56
2022/09/28 07:47:26;;;;;;;5.70;3.90;;;;;;;;;;5058072;27;95159;-55
2022/09/28 07:50:01;;;;;;;6.40;4.10;;;;;;;;;;5058006;27;93659;-56
2022/09/28 07:52:30;;;;;;;8.23;4.10;;;;;;;;;;5058251;27;92179;-55
2022/09/28 07:55:03;;;;;;;8.17;4.30;;;;;;;;;;5057693;27;91997;-56
2022/09/28 07:57:36;;;;;;;5.80;4.07;;;;;;;;;;5057999;27;94125;-55
2022/09/28 08:00:06;;;;;;;7.13;4.43;;;;;;;;;;5057780;27;93759;-56
2022/09/28 08:02:38;;;;;;;6.13;4.40;;;;;;;;;;5057904;27;92030;-56
2022/09/28 08:05:08;;;;;;;10.60;4.30;;;;;;;;;;5058289;27;91316;-56
2022/09/28 08:07:37;;;;;;;9.17;4.83;;;;;;;;;;5057982;27;93351;-56
2022/09/28 08:10:06;;;;;;;12.40;4.30;;;;;;;;;;5056469;27;92919;-55
2022/09/28 08:12:39;;;;;;;8.07;4.67;;;;;;;;;;5059365;27;92805;-56
2022/09/28 08:15:10;;;;;;;11.33;5.40;;;;;;;;;;5061452;27;92079;-55
2022/09/28 08:17:38;;;;;;;7.17;4.23;;;;;;;;;;5061726;27;93014;-56
2022/09/28 08:22:53;;;;;;;8.67;4.53;;;;;;;;;;5061739;27;92120;-56
2022/09/28 08:25:21;;;;;;;8.70;5.70;;;;;;;;;;5061227;27;92131;-55
2022/09/28 08:27:51;;;;;;;5.83;4.30;;;;;;;;;;5059879;27;93289;-56
2022/09/28 08:30:20;;;;;;;8.87;5.03;;;;;;;;;;5060653;27;92566;-55
2022/09/28 08:32:49;;;;;;;10.40;5.90;;;;;;;;;;5061662;27;92147;-52
2022/09/28 08:35:18;;;;;;;10.00;6.13;;;;;;;;;;5045088;27;92138;-55
2022/09/28 08:37:51;;;;;;;8.80;5.40;;;;;;;;;;5040518;28;94173;-56
2022/09/28 08:40:23;;;;;;;10.03;5.47;;;;;;;;;;5040748;28;93672;-56
2022/09/28 08:42:55;;;;;;;9.63;5.77;;;;;;;;;;5041898;27;91963;-56
2022/09/28 08:45:24;;;;;;;9.03;5.97;;;;;;;;;;5040788;28;92006;-55
2022/09/28 08:50:36;;;;;;;9.37;5.70;;;;;;;;;;5016291;27;93920;-56
2022/09/28 08:53:06;;;;;;;11.73;6.63;;;;;;;;;;5041724;27;92052;-55
2022/09/28 08:55:35;;;;;;;9.90;5.33;;;;;;;;;;5041616;28;91225;-56
2022/09/28 08:58:05;;;;;;;10.90;7.23;;;;;;;;;;5039411;28;94152;-55
2022/09/28 09:00:34;;;;;;;10.27;6.33;;;;;;;;;;5039519;28;92985;-55
2022/09/28 09:03:04;;;;;;;8.63;5.40;;;;;;;;;;5026985;28;93180;-55
2022/09/28 09:05:38;;;;;;;10.50;6.47;;;;;;;;;;5021207;28;91934;-55
2022/09/28 09:08:15;;;;;;;9.80;6.13;;;;;;;;;;5019632;28;94189;-55
2022/09/28 09:10:48;;;;;;;10.53;6.67;;;;;;;;;;5019141;28;92984;-55
2022/09/28 09:13:31;;;;;;;11.30;6.47;;;;;;;;;;5020858;28;92058;-54
2022/09/28 09:16:01;;;;;;;9.53;5.97;;;;;;;;;;5030158;28;92499;-53
2022/09/28 09:18:33;;;;;;;11.97;5.90;;;;;;;;;;5040655;28;92583;-54
2022/09/28 09:21:05;;;;;;;9.37;6.27;;;;;;;;;;5039999;28;92767;-54
2022/09/28 09:23:36;;;;;;;11.00;7.03;;;;;;;;;;5040412;27;92106;-54
2022/09/28 09:26:05;;;;;;;13.50;6.60;;;;;;;;;;5040500;28;92227;-54
2022/09/28 09:28:42;;;;;;;14.10;6.87;;;;;;;;;;5040067;28;94967;-55
2022/09/28 09:31:14;;;;;;;11.60;6.93;;;;;;;;;;5039435;28;95026;-53
2022/09/28 09:34:03;;;;;;;13.50;6.77;;;;;;;;;;5040932;28;92080;-54
2022/09/28 09:36:35;;;;;;;13.30;6.47;;;;;;;;;;5040923;28;92005;-55
2022/09/28 09:39:07;;;;;;;8.87;5.07;;;;;;;;;;5040212;28;93098;-55
2022/09/28 09:41:39;;;;;;;9.37;6.10;;;;;;;;;;5039981;28;93889;-54
2022/09/28 09:44:23;;;;;;;9.20;5.30;;;;;;;;;;5040716;28;92005;-55
2022/09/28 09:46:52;;;;;;;8.83;5.30;;;;;;;;;;5040469;28;91350;-55
2022/09/28 09:49:21;;;;;;;10.17;5.00;;;;;;;;;;5039890;28;93254;-55
2022/09/28 09:51:51;;;;;;;11.53;5.63;;;;;;;;;;5039953;28;93840;-55
2022/09/28 09:54:20;;;;;;;7.53;5.30;;;;;;;;;;5040267;28;92913;-55
2022/09/28 09:56:49;;;;;;;8.67;4.57;;;;;;;;;;5040886;28;92629;-55
2022/09/28 09:59:18;;;;;;;10.37;5.57;;;;;;;;;;5040269;28;93837;-54
2022/09/28 10:01:48;;;;;;;7.43;4.93;;;;;;;;;;5039496;27;92838;-54
2022/09/28 10:04:19;;;;;;;7.43;4.40;;;;;;;;;;5021359;28;91952;-54
2022/09/28 10:06:47;;;;;;;5.60;3.90;;;;;;;;;;5020045;28;92118;-54
2022/09/28 10:09:17;;;;;;;7.43;4.10;;;;;;;;;;5019546;27;92063;-55
2022/09/28 10:11:48;;;;;;;7.30;4.47;;;;;;;;;;5042523;27;94040;-55
2022/09/28 10:14:18;;;;;;;5.87;4.03;;;;;;;;;;5039898;28;92054;-55
2022/09/28 10:16:48;;;;;;;5.33;3.37;;;;;;;;;;5039105;28;91998;-55
2022/09/28 10:19:17;;;;;;;6.07;4.37;;;;;;;;;;5038719;28;94050;-55
2022/09/28 10:21:45;;;;;;;4.60;3.50;;;;;;;;;;5039690;28;94811;-55
2022/09/28 10:24:15;;;;;;;6.73;3.70;;;;;;;;;;5039667;28;92011;-55
2022/09/28 10:26:45;;;;;;;5.87;3.50;;;;;;;;;;5039784;28;92055;-55
2022/09/28 10:29:14;;;;;;;6.67;3.73;;;;;;;;;;5039462;28;92129;-55
2022/09/28 10:31:42;;;;;;;7.17;4.20;;;;;;;;;;5039189;28;93949;-55
2022/09/28 10:34:13;;;;;;;3.90;3.07;;;;;;;;;;5039554;28;91728;-54
2022/09/28 10:36:46;;;;;;;5.40;3.83;;;;;;;;;;5038557;27;91353;-55
2022/09/28 10:39:32;;;;;;;4.20;3.03;;;;;;;;;;5039142;28;94262;-55
2022/09/28 10:42:02;;;;;;;4.63;2.77;;;;;;;;;;5039301;28;93607;-54
2022/09/28 10:44:31;;;;;;;3.73;3.07;;;;;;;;;;5038320;27;93078;-55
2022/09/28 10:47:00;;;;;;;5.57;3.73;;;;;;;;;;5025981;28;92284;-55
2022/09/28 10:49:29;;;;;;;5.97;3.40;;;;;;;;;;5034711;28;93959;-54
2022/09/28 10:51:58;;;;;;;4.50;2.93;;;;;;;;;;5037607;28;92833;-54
2022/09/28 10:54:26;;;;;;;3.50;2.77;;;;;;;;;;5019229;28;91968;-55
2022/09/28 10:56:55;;;;;;;5.10;3.03;;;;;;;;;;5024832;27;91997;-53
2022/09/28 10:59:24;;;;;;;3.37;2.37;;;;;;;;;;5038627;28;92964;-54
2022/09/28 11:01:54;;;;;;;4.17;2.40;;;;;;;;;;5038279;28;92845;-53
2022/09/28 11:04:22;;;;;;;4.40;2.87;;;;;;;;;;5039224;28;91986;-53
2022/09/28 11:06:58;;;;;;;3.07;2.57;;;;;;;;;;5037074;28;92083;-53
2022/09/28 11:09:27;;;;;;;3.17;2.50;;;;;;;;;;5035680;28;94772;-54
2022/09/28 11:11:58;;;;;;;3.93;2.50;;;;;;;;;;5037506;28;94896;-54
2022/09/28 11:14:27;;;;;;;2.30;1.97;;;;;;;;;;5038604;28;92001;-54
2022/09/28 11:17:14;;;;;;;3.23;2.37;;;;;;;;;;5038226;28;92004;-53
2022/09/28 11:19:42;;;;;;;3.77;2.10;;;;;;;;;;5038873;28;94234;-54
2022/09/28 11:22:29;;;;;;;10.13;2.30;;;;;;;;;;5039249;28;93432;-54
2022/09/28 11:25:13;;;;;;;5.60;2.63;;;;;;;;;;5038948;28;91770;-53
2022/09/28 11:27:42;;;;;;;3.80;2.30;;;;;;;;;;5039130;28;91249;-53
2022/09/28 11:30:21;;;;;;;2.43;2.23;;;;;;;;;;5037533;28;94361;-53
2022/09/28 11:32:50;;;;;;;4.00;2.07;;;;;;;;;;5038141;28;93789;-54
2022/09/28 11:35:19;;;;;;;3.00;1.83;;;;;;;;;;5037862;28;93110;-53
2022/09/28 11:37:52;;;;;;;2.50;1.83;;;;;;;;;;5038909;28;91921;-54
2022/09/28 11:40:23;;;;;;;2.90;1.67;;;;;;;;;;5037990;28;94137;-54
2022/09/28 11:42:54;;;;;;;2.37;1.90;;;;;;;;;;5038737;28;94291;-54
2022/09/28 11:45:30;;;;;;;4.33;2.33;;;;;;;;;;5037793;28;91962;-54
2022/09/28 11:47:59;;;;;;;3.13;1.53;;;;;;;;;;5040565;27;92080;-54
2022/09/28 11:50:29;;;;;;;2.57;2.10;;;;;;;;;;5041361;28;92993;-53
2022/09/28 11:53:01;;;;;;;1.90;1.47;;;;;;;;;;5042437;28;91381;-53
2022/09/28 11:55:31;;;;;;;4.30;1.70;;;;;;;;;;5042288;28;92041;-53
2022/09/28 11:58:01;;;;;;;2.90;2.07;;;;;;;;;;5041889;28;92009;-53
2022/09/28 12:00:30;;;;;;;1.73;1.50;;;;;;;;;;5040740;28;93762;-53
2022/09/28 12:03:00;;;;;;;2.93;1.63;;;;;;;;;;5041207;28;94880;-53
2022/09/28 12:05:30;;;;;;;4.33;1.13;;;;;;;;;;5041981;28;92266;-52
2022/09/28 12:08:00;;;;;;;2.30;1.67;;;;;;;;;;5042489;28;92033;-54
2022/09/28 12:10:32;;;;;;;1.53;1.20;;;;;;;;;;5041672;28;94128;-54
2022/09/28 12:13:01;;;;;;;2.83;1.63;;;;;;;;;;5041598;28;93700;-54
2022/09/28 12:15:31;;;;;;;2.60;1.10;;;;;;;;;;5041884;28;91758;-53
2022/09/28 12:18:20;;;;;;;1.77;1.43;;;;;;;;;;5041997;28;91318;-54
2022/09/28 12:20:50;;;;;;;3.53;1.40;;;;;;;;;;5041342;28;94259;-54
2022/09/28 12:23:20;;;;;;;1.80;1.10;;;;;;;;;;5041244;28;93704;-54
2022/09/28 12:25:50;;;;;;;1.43;1.10;;;;;;;;;;5040911;28;92995;-53
2022/09/28 12:28:20;;;;;;;1.97;1.43;;;;;;;;;;5041229;28;92196;-54
2022/09/28 12:30:48;;;;;;;2.93;1.43;;;;;;;;;;5040677;28;92840;-54
2022/09/28 12:33:16;;;;;;;3.93;1.50;;;;;;;;;;5040974;28;94012;-53
2022/09/28 12:35:58;;;;;;;1.07;0.93;;;;;;;;;;5041197;28;92048;-54
2022/09/28 12:38:41;;;;;;;1.60;1.30;;;;;;;;;;5041594;28;91960;-54
2022/09/28 12:41:16;;;;;;;2.47;1.23;;;;;;;;;;5041074;28;93233;-53
2022/09/28 12:43:57;;;;;;;1.73;1.30;;;;;;;;;;5041487;28;93094;-54
2022/09/28 12:46:35;;;;;;;1.43;1.33;;;;;;;;;;5041298;28;92032;-54
2022/09/28 12:49:18;;;;;;;3.67;1.10;;;;;;;;;;5041230;28;91985;-54
2022/09/28 12:52:09;;;;;;;3.33;1.23;;;;;;;;;;5040529;28;94749;-54
2022/09/28 12:54:46;;;;;;;2.03;1.20;;;;;;;;;;5041332;28;93437;-54
2022/09/28 12:57:29;;;;;;;2.10;1.37;;;;;;;;;;5041166;28;92028;-54
2022/09/28 12:59:59;;;;;;;1.60;1.47;;;;;;;;;;5037050;28;92090;-54
2022/09/28 13:02:41;;;;;;;2.50;1.60;;;;;;;;;;5049122;27;94096;-54
2022/09/28 13:05:34;;;;;;;1.23;1.13;;;;;;;;;;5061518;27;92659;-53
2022/09/28 13:08:03;;;;;;;1.93;1.30;;;;;;;;;;5061948;27;91955;-54
2022/09/28 13:10:34;;;;;;;2.70;1.30;;;;;;;;;;5061791;27;91215;-54
2022/09/28 13:13:11;;;;;;;1.93;1.53;;;;;;;;;;5060998;27;92960;-53
2022/09/28 13:15:41;;;;;;;1.50;1.33;;;;;;;;;;5060917;27;93743;-54
2022/09/28 13:18:12;;;;;;;2.80;1.50;;;;;;;;;;5060966;27;92934;-54
2022/09/28 13:20:44;;;;;;;1.83;1.40;;;;;;;;;;5061542;27;92033;-54
2022/09/28 13:23:14;;;;;;;1.93;1.77;;;;;;;;;;5060591;27;94171;-54
2022/09/28 13:25:45;;;;;;;3.23;1.90;;;;;;;;;;5060314;27;92827;-56
2022/09/28 13:28:14;;;;;;;1.70;1.40;;;;;;;;;;5061481;27;91856;-53
2022/09/28 13:30:43;;;;;;;2.23;1.70;;;;;;;;;;5061024;27;92074;-53
2022/09/28 13:33:15;;;;;;;4.53;2.23;;;;;;;;;;5060457;27;94202;-53
2022/09/28 13:35:43;;;;;;;1.43;1.33;;;;;;;;;;5060175;27;93675;-55
2022/09/28 13:38:30;;;;;;;3.00;2.13;;;;;;;;;;5061438;27;91752;-55
2022/09/28 13:41:11;;;;;;;2.30;2.10;;;;;;;;;;5060692;27;91935;-55
2022/09/28 13:43:42;;;;;;;4.03;2.37;;;;;;;;;;5059957;27;93762;-55
2022/09/28 13:46:11;;;;;;;2.57;1.50;;;;;;;;;;5060210;27;94894;-54
2022/09/28 13:48:43;;;;;;;2.97;2.00;;;;;;;;;;5060701;27;92077;-55
2022/09/28 13:51:20;;;;;;;3.70;2.50;;;;;;;;;;5060639;27;92079;-55
2022/09/28 13:54:01;;;;;;;3.53;2.63;;;;;;;;;;5059713;27;94242;-55
2022/09/28 13:56:34;;;;;;;4.37;2.67;;;;;;;;;;5059935;27;92564;-55
2022/09/28 13:59:04;;;;;;;3.27;1.87;;;;;;;;;;5060881;27;91945;-55
2022/09/28 14:01:34;;;;;;;3.23;2.50;;;;;;;;;;5060777;27;91307;-55
2022/09/28 14:04:12;;;;;;;4.50;2.70;;;;;;;;;;5060048;27;94257;-55
2022/09/28 14:06:45;;;;;;;3.50;2.30;;;;;;;;;;5058781;27;92818;-55
2022/09/28 14:09:51;;;;;;;3.80;2.63;;;;;;;;;;5058252;27;93069;-55
2022/09/28 14:12:31;;;;;;;8.27;2.80;;;;;;;;;;5058518;27;92055;-55
2022/09/28 14:15:01;;;;;;;4.47;2.87;;;;;;;;;;5060051;27;93697;-55
2022/09/28 14:17:54;;;;;;;6.83;3.20;;;;;;;;;;5059915;27;92380;-55
2022/09/28 14:20:24;;;;;;;5.20;3.53;;;;;;;;;;5059304;27;91982;-55
2022/09/28 14:22:59;;;;;;;3.13;2.80;;;;;;;;;;5060232;27;92007;-56
2022/09/28 14:25:30;;;;;;;4.37;3.03;;;;;;;;;;5059971;27;92908;-55
2022/09/28 14:28:04;;;;;;;4.07;3.10;;;;;;;;;;5060135;27;93840;-55
2022/09/28 14:30:44;;;;;;;4.47;3.17;;;;;;;;;;5059996;27;92182;-55
2022/09/28 14:33:16;;;;;;;5.20;3.10;;;;;;;;;;5059525;27;91983;-55
2022/09/28 14:35:46;;;;;;;6.20;3.60;;;;;;;;;;5057247;27;94028;-55
2022/09/28 14:41:11;;;;;;;8.67;4.07;;;;;;;;;;5058701;27;92390;-55
2022/09/28 14:44:01;;;;;;;5.63;3.50;;;;;;;;;;5047515;27;92885;-54
2022/09/28 14:46:36;;;;;;;4.03;2.83;;;;;;;;;;5038555;27;93153;-56
2022/09/28 14:49:05;;;;;;;5.03;3.93;;;;;;;;;;5039562;27;93808;-55
2022/09/28 14:52:06;;;;;;;4.57;3.53;;;;;;;;;;5039372;27;92120;-51
2022/09/28 14:54:45;;;;;;;7.27;3.17;;;;;;;;;;5053051;27;91346;-52
2022/09/28 14:57:16;;;;;;;8.37;2.37;;;;;;;;;;5038423;28;93289;-53
2022/09/28 14:59:46;;;;;;;4.40;2.73;;;;;;;;;;5048085;27;93894;-52
2022/09/28 15:02:19;;;;;;;4.47;3.27;;;;;;;;;;5058182;27;93625;-53
2022/09/28 15:04:49;;;;;;;4.20;2.83;;;;;;;;;;5058682;27;92025;-53
2022/09/28 15:07:21;;;;;;;2.60;2.20;;;;;;;;;;5038015;27;93287;-52
2022/09/28 15:09:50;;;;;;;5.23;2.77;;;;;;;;;;5037244;28;93685;-52
2022/09/28 15:12:19;;;;;;;5.27;2.33;;;;;;;;;;5036556;28;92581;-53
2022/09/28 15:14:50;;;;;;;3.93;3.00;;;;;;;;;;5046910;27;92895;-53
2022/09/28 15:17:20;;;;;;;5.87;3.37;;;;;;;;;;5028057;27;94264;-52
2022/09/28 15:19:49;;;;;;;4.90;3.13;;;;;;;;;;5039811;27;92960;-52